Observation data for Pampa on 08/13/2019      Previous  Date       Current Mesonet Observations  Soil Data  Daily Summary Page  Observations in Plain Language
KPMS 130500Z 14019G24KT 21/19 A3002 RMK A01 T02070185  RH  092%=      5-min Rain = 0
KPMS 130505Z 14021G27KT 21/19 A3002 RMK A01 T02080185  RH  091%=      5-min Rain = 0
KPMS 130510Z 14019G25KT 21/18 A3002 RMK A01 T02090184  RH  090%=      5-min Rain = 0
KPMS 130515Z 14017G23KT 21/18 A3001 RMK A01 T02100184  RH  090%=      5-min Rain = 0
KPMS 130520Z 12017G22KT 21/18 A3001 RMK A01 T02100184  RH  090%=      5-min Rain = 0
KPMS 130525Z 12017G22KT 21/18 A30 RMK A01 T02120183  RH  089%=      5-min Rain = 0
KPMS 130530Z 12019G24KT 21/18 A30 RMK A01 T02130183  RH  088%=      5-min Rain = 0.01
KPMS 130535Z 12019G25KT 21/18 A30 RMK A01 T02140183  RH  088%=      5-min Rain = 0
KPMS 130540Z 11020G26KT 21/18 A30 RMK A01 T02140184  RH  087%=      5-min Rain = 0
KPMS 130545Z 12016G22KT 21/19 A3001 RMK A01 T02120185  RH  090%=      5-min Rain = 0
KPMS 130550Z 11017KT 21/19 A3001 RMK A01 T02100186  RH  091%=      5-min Rain = 0
KPMS 130555Z 12017G23KT 21/19 A3002 RMK A01 T02100186  RH  091%=      5-min Rain = 0
KPMS 130600Z 12017G22KT 21/19 A3002 RMK A01 T02100185  RH  090%=      5-min Rain = 0
KPMS 130605Z 12015G22KT 21/19 A3002 RMK A01 T02090185  RH  091%=      5-min Rain = 0
KPMS 130610Z 12017G23KT 21/19 A3002 RMK A01 T02100185  RH  090%=      5-min Rain = 0
KPMS 130615Z 13015G20KT 21/19 A3002 RMK A01 T02100185  RH  090%=      5-min Rain = 0
KPMS 130620Z 13016KT 21/19 A3002 RMK A01 T02100185  RH  091%=      5-min Rain = 0
KPMS 130625Z 13014G19KT 21/19 A3002 RMK A01 T02100185  RH  091%=      5-min Rain = 0
KPMS 130630Z 12014KT 21/19 A3003 RMK A01 T02100185  RH  091%=      5-min Rain = 0
KPMS 130635Z 12013KT 21/19 A3003 RMK A01 T02090186  RH  091%=      5-min Rain = 0
KPMS 130640Z 12014KT 21/19 A3003 RMK A01 T02100186  RH  091%=      5-min Rain = 0
KPMS 130645Z 13015G20KT 21/19 A3003 RMK A01 T02120185  RH  089%=      5-min Rain = 0
KPMS 130650Z 13014G19KT 21/19 A3002 RMK A01 T02110186  RH  090%=      5-min Rain = 0
KPMS 130655Z 13015KT 21/19 A3002 RMK A01 T02090186  RH  091%=      5-min Rain = 0
KPMS 130700Z 13013G18KT 21/19 A3003 RMK A01 T02090187  RH  092%=      5-min Rain = 0
KPMS 130705Z 14011G16KT 21/19 A3003 RMK A01 T02080187  RH  092%=      5-min Rain = 0
KPMS 130710Z 13013KT 21/19 A3003 RMK A01 T02090187  RH  092%=      5-min Rain = 0
KPMS 130715Z 13014KT 21/19 A3002 RMK A01 T02100186  RH  091%=      5-min Rain = 0
KPMS 130720Z 13014KT 21/19 A3002 RMK A01 T02110186  RH  091%=      5-min Rain = 0
KPMS 130725Z 12012KT 21/19 A3002 RMK A01 T02090187  RH  092%=      5-min Rain = 0
KPMS 130730Z 13011KT 21/19 A3002 RMK A01 T02090187  RH  092%=      5-min Rain = 0
KPMS 130735Z 13012KT 21/19 A3002 RMK A01 T02090187  RH  092%=      5-min Rain = 0
KPMS 130740Z 13013KT 21/19 A3002 RMK A01 T02100186  RH  091%=      5-min Rain = 0
KPMS 130745Z 13013KT 21/19 A3002 RMK A01 T02100186  RH  091%=      5-min Rain = 0
KPMS 130750Z 13014G20KT 21/19 A3001 RMK A01 T02100187  RH  091%=      5-min Rain = 0
KPMS 130755Z 13014G19KT 21/19 A3001 RMK A01 T02100187  RH  091%=      5-min Rain = 0
KPMS 130800Z 13014KT 21/19 A3001 RMK A01 T02110187  RH  091%=      5-min Rain = 0
KPMS 130805Z 13014KT 21/19 A3001 RMK A01 T02100187  RH  091%=      5-min Rain = 0
KPMS 130810Z 13012G18KT 21/19 A3002 RMK A01 T02100187  RH  092%=      5-min Rain = 0
KPMS 130815Z 13014KT 21/19 A3002 RMK A01 T02090187  RH  092%=      5-min Rain = 0
KPMS 130820Z 12014G19KT 21/19 A3002 RMK A01 T02090187  RH  092%=      5-min Rain = 0
KPMS 130825Z 12013G18KT 21/19 A3002 RMK A01 T02090187  RH  092%=      5-min Rain = 0
KPMS 130830Z 12013G18KT 21/19 A3002 RMK A01 T02080187  RH  092%=      5-min Rain = 0
KPMS 130835Z 12011KT 21/19 A3003 RMK A01 T02080187  RH  093%=      5-min Rain = 0
KPMS 130840Z 12011G16KT 21/19 A3002 RMK A01 T02070187  RH  093%=      5-min Rain = 0
KPMS 130845Z 13010KT 21/19 A3002 RMK A01 T02070186  RH  093%=      5-min Rain = 0
KPMS 130850Z 13010KT 21/19 A3002 RMK A01 T02060187  RH  094%=      5-min Rain = 0
KPMS 130855Z 12009KT 21/19 A3002 RMK A01 T02050186  RH  094%=      5-min Rain = 0
KPMS 130900Z 12010KT 21/19 A3002 RMK A01 T02050186  RH  094%=      5-min Rain = 0
KPMS 130905Z 13009KT 20/19 A3002 RMK A01 T02040186  RH  095%=      5-min Rain = 0
KPMS 130910Z 12008KT 20/19 A3002 RMK A01 T02030186  RH  095%=      5-min Rain = 0
KPMS 130915Z 12008KT 20/19 A3002 RMK A01 T02030186  RH  095%=      5-min Rain = 0
KPMS 130920Z 13007KT 20/19 A3002 RMK A01 T02030186  RH  095%=      5-min Rain = 0
KPMS 130925Z 13008KT 20/19 A3002 RMK A01 T02020186  RH  095%=      5-min Rain = 0
KPMS 130930Z 12008KT 20/19 A3002 RMK A01 T02030186  RH  095%=      5-min Rain = 0
KPMS 130935Z 12007KT 20/19 A3002 RMK A01 T02020185  RH  095%=      5-min Rain = 0
KPMS 130940Z 12007KT 20/19 A3002 RMK A01 T02020185  RH  095%=      5-min Rain = 0
KPMS 130945Z 13007KT 20/18 A3002 RMK A01 T02020184  RH  094%=      5-min Rain = 0
KPMS 130950Z 12007KT 20/19 A3002 RMK A01 T02020185  RH  095%=      5-min Rain = 0
KPMS 130955Z 12006KT 20/18 A3002 RMK A01 T02020184  RH  095%=      5-min Rain = 0
KPMS 131000Z 12006KT 20/18 A3002 RMK A01 T02010184  RH  095%=      5-min Rain = 0
KPMS 131005Z 12006KT 20/18 A3003 RMK A01 T02000184  RH  095%=      5-min Rain = 0
KPMS 131010Z 11005KT 20/18 A3003 RMK A01 T02000183  RH  095%=      5-min Rain = 0
KPMS 131015Z 11005KT 20/18 A3003 RMK A01 T01990182  RH  095%=      5-min Rain = 0
KPMS 131020Z 10006KT 20/18 A3003 RMK A01 T01990183  RH  095%=      5-min Rain = 0
KPMS 131025Z 09004KT 20/18 A3003 RMK A01 T01980181  RH  095%=      5-min Rain = 0
KPMS 131030Z 09005KT 20/18 A3004 RMK A01 T01970181  RH  096%=      5-min Rain = 0
KPMS 131035Z 08003KT 20/18 A3004 RMK A01 T01960180  RH  096%=      5-min Rain = 0
KPMS 131040Z 05001KT 20/18 A3004 RMK A01 T01950179  RH  096%=      5-min Rain = 0
KPMS 131045Z 08002KT 19/18 A3004 RMK A01 T01930178  RH  096%=      5-min Rain = 0
KPMS 131050Z 09003KT 19/18 A3004 RMK A01 T01920178  RH  096%=      5-min Rain = 0
KPMS 131055Z 05003KT 19/18 A3004 RMK A01 T01920177  RH  096%=      5-min Rain = 0
KPMS 131100Z 05003KT 19/18 A3004 RMK A01 T01900176  RH  096%=      5-min Rain = 0
KPMS 131105Z 08001KT 19/18 A3004 RMK A01 T01900176  RH  097%=      5-min Rain = 0
KPMS 131110Z 04001KT 19/18 A3005 RMK A01 T01900177  RH  097%=      5-min Rain = 0
KPMS 131115Z 06002KT 19/18 A3005 RMK A01 T01900177  RH  097%=      5-min Rain = 0
KPMS 131120Z 02001KT 19/18 A3005 RMK A01 T01890177  RH  097%=      5-min Rain = 0
KPMS 131125Z 36001KT 19/18 A3005 RMK A01 T01900177  RH  098%=      5-min Rain = 0
KPMS 131130Z 33003KT 19/18 A3006 RMK A01 T01900178  RH  098%=      5-min Rain = 0
KPMS 131135Z 35003KT 19/18 A3006 RMK A01 T01900177  RH  098%=      5-min Rain = 0
KPMS 131140Z 04001KT 19/18 A3006 RMK A01 T01880176  RH  097%=      5-min Rain = 0
KPMS 131145Z 01002KT 19/18 A3006 RMK A01 T01900177  RH  097%=      5-min Rain = 0
KPMS 131150Z 34001KT 19/18 A3006 RMK A01 T01900177  RH  097%=      5-min Rain = 0
KPMS 131155Z 36001KT 19/18 A3006 RMK A01 T01880176  RH  097%=      5-min Rain = 0
KPMS 131200Z 35002KT 19/18 A3006 RMK A01 T01890176  RH  097%=      5-min Rain = 0
KPMS 131205Z 35002KT 19/17 A3007 RMK A01 T01860174  RH  097%=      5-min Rain = 0
KPMS 131210Z 34003KT 19/17 A3007 RMK A01 T01850173  RH  097%=      5-min Rain = 0
KPMS 131215Z 34003KT 18/17 A3007 RMK A01 T01840173  RH  098%=      5-min Rain = 0
KPMS 131220Z 34002KT 19/17 A3007 RMK A01 T01850174  RH  098%=      5-min Rain = 0
KPMS 131225Z 35002KT 19/18 A3007 RMK A01 T01860175  RH  098%=      5-min Rain = 0
KPMS 131230Z 02003KT 19/18 A3008 RMK A01 T01860175  RH  098%=      5-min Rain = 0
KPMS 131235Z 00003KT 19/18 A3008 RMK A01 T01860175  RH  098%=      5-min Rain = 0
KPMS 131240Z 35003KT 19/18 A3008 RMK A01 T01880177  RH  098%=      5-min Rain = 0
KPMS 131245Z 33003KT 19/18 A3008 RMK A01 T01890178  RH  098%=      5-min Rain = 0
KPMS 131250Z 32003KT 19/18 A3008 RMK A01 T01910180  RH  098%=      5-min Rain = 0
KPMS 131255Z 32004KT 19/18 A3008 RMK A01 T01930181  RH  098%=      5-min Rain = 0
KPMS 131300Z 31004KT 20/18 A3009 RMK A01 T01960183  RH  097%=      5-min Rain = 0
KPMS 131305Z 31004KT 20/18 A3009 RMK A01 T01970182  RH  097%=      5-min Rain = 0
KPMS 131310Z 31005KT 20/18 A3009 RMK A01 T01990184  RH  096%=      5-min Rain = 0
KPMS 131315Z 32004KT 20/18 A3009 RMK A01 T02010184  RH  095%=      5-min Rain = 0
KPMS 131320Z 33004KT 20/18 A3009 RMK A01 T02030184  RH  094%=      5-min Rain = 0
KPMS 131325Z 34003KT 21/19 A3009 RMK A01 T02060186  RH  093%=      5-min Rain = 0
KPMS 131330Z 35003KT 21/18 A3009 RMK A01 T02070184  RH  091%=      5-min Rain = 0
KPMS 131335Z 35003KT 21/19 A3009 RMK A01 T02090185  RH  091%=      5-min Rain = 0
KPMS 131340Z 34003KT 21/18 A3009 RMK A01 T02100184  RH  090%=      5-min Rain = 0
KPMS 131345Z 00003KT 21/19 A3009 RMK A01 T02120185  RH  089%=      5-min Rain = 0
KPMS 131350Z 35004KT 21/19 A301 RMK A01 T02140186  RH  089%=      5-min Rain = 0
KPMS 131355Z 34004KT 22/19 A301 RMK A01 T02150187  RH  089%=      5-min Rain = 0
KPMS 131400Z 00005KT 22/19 A3011 RMK A01 T02160186  RH  088%=      5-min Rain = 0
KPMS 131405Z 35005KT 22/19 A3011 RMK A01 T02180187  RH  087%=      5-min Rain = 0
KPMS 131410Z 34006KT 22/19 A3011 RMK A01 T02200188  RH  087%=      5-min Rain = 0
KPMS 131415Z 34006KT 22/19 A3011 RMK A01 T02210187  RH  086%=      5-min Rain = 0
KPMS 131420Z 34007KT 22/19 A3011 RMK A01 T02240190  RH  086%=      5-min Rain = 0
KPMS 131425Z 35007KT 22/19 A3011 RMK A01 T02240189  RH  085%=      5-min Rain = 0
KPMS 131430Z 33006KT 23/19 A3011 RMK A01 T02260190  RH  085%=      5-min Rain = 0
KPMS 131435Z 34006KT 23/19 A3011 RMK A01 T02270189  RH  084%=      5-min Rain = 0
KPMS 131440Z 00006KT 23/19 A3012 RMK A01 T02290187  RH  082%=      5-min Rain = 0
KPMS 131445Z 34005KT 23/19 A3012 RMK A01 T02290187  RH  082%=      5-min Rain = 0
KPMS 131450Z 34006KT 23/19 A3012 RMK A01 T02310189  RH  082%=      5-min Rain = 0
KPMS 131455Z 00006KT 24/19 A3012 RMK A01 T02350190  RH  080%=      5-min Rain = 0
KPMS 131500Z 02006KT 24/19 A3012 RMK A01 T02370190  RH  079%=      5-min Rain = 0
KPMS 131505Z 00006KT 24/19 A3012 RMK A01 T02370187  RH  078%=      5-min Rain = 0
KPMS 131510Z 01006KT 24/19 A3012 RMK A01 T02370186  RH  077%=      5-min Rain = 0
KPMS 131515Z 03005KT 24/19 A3012 RMK A01 T02410186  RH  076%=      5-min Rain = 0
KPMS 131520Z 03006KT 24/18 A3012 RMK A01 T02420184  RH  074%=      5-min Rain = 0
KPMS 131525Z 01005KT 24/18 A3012 RMK A01 T02410183  RH  074%=      5-min Rain = 0
KPMS 131530Z 36005KT 24/18 A3012 RMK A01 T02430184  RH  073%=      5-min Rain = 0
KPMS 131535Z 01004KT 25/19 A3012 RMK A01 T02470186  RH  073%=      5-min Rain = 0
KPMS 131540Z 36004KT 25/19 A3012 RMK A01 T02510187  RH  071%=      5-min Rain = 0
KPMS 131545Z 36004KT 25/19 A3013 RMK A01 T02540189  RH  071%=      5-min Rain = 0
KPMS 131550Z 02005KT 26/19 A3013 RMK A01 T02550188  RH  070%=      5-min Rain = 0
KPMS 131555Z 01006KT 26/19 A3013 RMK A01 T02570188  RH  069%=      5-min Rain = 0
KPMS 131600Z 02005KT 26/19 A3013 RMK A01 T02590191  RH  070%=      5-min Rain = 0
KPMS 131605Z 01006KT 26/19 A3013 RMK A01 T02620191  RH  069%=      5-min Rain = 0
KPMS 131610Z 05006KT 26/19 A3013 RMK A01 T02630191  RH  068%=      5-min Rain = 0
KPMS 131615Z 01006KT 26/19 A3013 RMK A01 T02640188  RH  067%=      5-min Rain = 0
KPMS 131620Z 03005KT 27/19 A3013 RMK A01 T02670190  RH  066%=      5-min Rain = 0
KPMS 131625Z 35007KT 27/19 A3013 RMK A01 T02670187  RH  065%=      5-min Rain = 0
KPMS 131630Z 00006KT 27/19 A3013 RMK A01 T02700191  RH  065%=      5-min Rain = 0
KPMS 131635Z 03006KT 28/19 A3013 RMK A01 T02770188  RH  062%=      5-min Rain = 0
KPMS 131640Z 04005KT 28/19 A3013 RMK A01 T02780189  RH  062%=      5-min Rain = 0
KPMS 131645Z 01006KT 28/19 A3013 RMK A01 T02780186  RH  060%=      5-min Rain = 0
KPMS 131650Z 03005G10KT 29/18 A3013 RMK A01 T02860182  RH  056%=      5-min Rain = 0
KPMS 131655Z 03007KT 28/18 A3014 RMK A01 T02840182  RH  057%=      5-min Rain = 0
KPMS 131700Z 05007KT 29/18 A3014 RMK A01 T02880181  RH  055%=      5-min Rain = 0
KPMS 131705Z 06006KT 29/18 A3014 RMK A01 T02860175  RH  054%=      5-min Rain = 0
KPMS 131710Z 07007KT 29/17 A3014 RMK A01 T02880173  RH  052%=      5-min Rain = 0
KPMS 131715Z 06006KT 29/18 A3014 RMK A01 T02920180  RH  054%=      5-min Rain = 0
KPMS 131720Z 06007G13KT 29/18 A3014 RMK A01 T02930177  RH  052%=      5-min Rain = 0
KPMS 131725Z 06006G11KT 29/18 A3013 RMK A01 T02890176  RH  053%=      5-min Rain = 0
KPMS 131730Z 06009KT 29/17 A3013 RMK A01 T02900173  RH  052%=      5-min Rain = 0
KPMS 131735Z 06008KT 29/17 A3013 RMK A01 T02910172  RH  051%=      5-min Rain = 0
KPMS 131740Z 07008KT 29/17 A3013 RMK A01 T02910173  RH  052%=      5-min Rain = 0
KPMS 131745Z 08009KT 30/18 A3013 RMK A01 T02960175  RH  051%=      5-min Rain = 0
KPMS 131750Z 09008KT 29/18 A3013 RMK A01 T02930175  RH  052%=      5-min Rain = 0
KPMS 131755Z 07008KT 30/18 A3013 RMK A01 T02980176  RH  051%=      5-min Rain = 0
KPMS 131800Z 07009G14KT 30/18 A3013 RMK A01 T02950176  RH  051%=      5-min Rain = 0
KPMS 131805Z 09010G15KT 30/18 A3013 RMK A01 T02990176  RH  050%=      5-min Rain = 0
KPMS 131810Z 10009KT 30/18 A3013 RMK A01 T03000175  RH  050%=      5-min Rain = 0
KPMS 131815Z 10009KT 30/18 A3013 RMK A01 T03010178  RH  050%=      5-min Rain = 0
KPMS 131820Z 09011KT 31/18 A3012 RMK A01 T03050175  RH  048%=      5-min Rain = 0
KPMS 131825Z 09009KT 30/17 A3012 RMK A01 T03010173  RH  049%=      5-min Rain = 0
KPMS 131830Z 07010KT 30/18 A3012 RMK A01 T03040175  RH  048%=      5-min Rain = 0
KPMS 131835Z 09010G16KT 31/17 A3012 RMK A01 T03060169  RH  046%=      5-min Rain = 0
KPMS 131840Z 09012KT 31/17 A3012 RMK A01 T03070167  RH  045%=      5-min Rain = 0
KPMS 131845Z 10013G18KT 31/16 A3012 RMK A01 T03080164  RH  044%=      5-min Rain = 0
KPMS 131850Z 08009KT 31/17 A3012 RMK A01 T03060165  RH  045%=      5-min Rain = 0
KPMS 131855Z 08010G15KT 31/17 A3012 RMK A01 T03080170  RH  046%=      5-min Rain = 0
KPMS 131900Z 09010G15KT 31/17 A3012 RMK A01 T03080169  RH  045%=      5-min Rain = 0
KPMS 131905Z 09009KT 31/17 A3012 RMK A01 T03110169  RH  045%=      5-min Rain = 0
KPMS 131910Z 08012G20KT 31/17 A3011 RMK A01 T03090171  RH  046%=      5-min Rain = 0
KPMS 131915Z 08010G17KT 31/17 A3012 RMK A01 T03100173  RH  046%=      5-min Rain = 0
KPMS 131920Z 09011KT 31/17 A3011 RMK A01 T03120168  RH  044%=      5-min Rain = 0
KPMS 131925Z 07008KT 31/17 A3011 RMK A01 T03100168  RH  045%=      5-min Rain = 0
KPMS 131930Z 08008G14KT 31/17 A3011 RMK A01 T03130174  RH  046%=      5-min Rain = 0
KPMS 131935Z 06009KT 31/17 A3011 RMK A01 T03130173  RH  046%=      5-min Rain = 0
KPMS 131940Z 09010KT 31/18 A3011 RMK A01 T03110176  RH  047%=      5-min Rain = 0
KPMS 131945Z 08009G16KT 31/17 A3011 RMK A01 T03100173  RH  046%=      5-min Rain = 0
KPMS 131950Z 07009G14KT 31/17 A3011 RMK A01 T03110169  RH  045%=      5-min Rain = 0
KPMS 131955Z 05008KT 31/17 A3011 RMK A01 T03140173  RH  045%=      5-min Rain = 0
KPMS 132000Z 08007KT 31/17 A3011 RMK A01 T03130170  RH  044%=      5-min Rain = 0
KPMS 132005Z 08007G12KT 31/17 A301 RMK A01 T03090171  RH  046%=      5-min Rain = 0
KPMS 132010Z 06009G15KT 32/18 A301 RMK A01 T03150175  RH  046%=      5-min Rain = 0
KPMS 132015Z 05008G13KT 32/17 A301 RMK A01 T03150171  RH  044%=      5-min Rain = 0
KPMS 132020Z 08007G13KT 32/17 A301 RMK A01 T03160173  RH  045%=      5-min Rain = 0
KPMS 132025Z 07009KT 32/17 A301 RMK A01 T03150172  RH  044%=      5-min Rain = 0
KPMS 132030Z 08009G16KT 32/18 A301 RMK A01 T03170175  RH  045%=      5-min Rain = 0
KPMS 132035Z 09010KT 32/18 A301 RMK A01 T03180177  RH  045%=      5-min Rain = 0
KPMS 132040Z 08008KT 32/17 A3009 RMK A01 T03150172  RH  045%=      5-min Rain = 0
KPMS 132045Z 07009G15KT 32/17 A3009 RMK A01 T03160172  RH  045%=      5-min Rain = 0
KPMS 132050Z 07009KT 32/18 A3009 RMK A01 T03170176  RH  045%=      5-min Rain = 0
KPMS 132055Z 07009KT 32/18 A3009 RMK A01 T03190179  RH  046%=      5-min Rain = 0
KPMS 132100Z 08009G14KT 32/18 A3009 RMK A01 T03160175  RH  045%=      5-min Rain = 0
KPMS 132105Z 09011KT 32/18 A3009 RMK A01 T03160177  RH  046%=      5-min Rain = 0
KPMS 132110Z 10010G15KT 32/18 A3009 RMK A01 T03160176  RH  046%=      5-min Rain = 0
KPMS 132115Z 11009G15KT 32/18 A3009 RMK A01 T03160178  RH  046%=      5-min Rain = 0
KPMS 132120Z 11009KT 31/18 A3008 RMK A01 T03130178  RH  047%=      5-min Rain = 0
KPMS 132125Z 11008G14KT 32/18 A3008 RMK A01 T03160180  RH  047%=      5-min Rain = 0
KPMS 132130Z 10010G17KT 31/18 A3008 RMK A01 T03130180  RH  048%=      5-min Rain = 0
KPMS 132135Z 11010G15KT 31/18 A3008 RMK A01 T03130182  RH  048%=      5-min Rain = 0
KPMS 132140Z 10009KT 32/18 A3008 RMK A01 T03160182  RH  048%=      5-min Rain = 0
KPMS 132145Z 10010KT 32/18 A3008 RMK A01 T03180181  RH  046%=      5-min Rain = 0
KPMS 132150Z 10010G16KT 31/18 A3007 RMK A01 T03140177  RH  046%=      5-min Rain = 0
KPMS 132155Z 10009G14KT 31/18 A3007 RMK A01 T03130176  RH  046%=      5-min Rain = 0
KPMS 132200Z 12009G15KT 31/18 A3007 RMK A01 T03140178  RH  047%=      5-min Rain = 0
KPMS 132205Z 12012G18KT 31/18 A3007 RMK A01 T03130179  RH  047%=      5-min Rain = 0
KPMS 132210Z 10009KT 31/18 A3007 RMK A01 T03140179  RH  047%=      5-min Rain = 0
KPMS 132215Z 12009KT 31/18 A3006 RMK A01 T03120181  RH  048%=      5-min Rain = 0
KPMS 132220Z 13011KT 31/18 A3007 RMK A01 T03140181  RH  048%=      5-min Rain = 0
KPMS 132225Z 11010G16KT 31/18 A3007 RMK A01 T03130179  RH  047%=      5-min Rain = 0
KPMS 132230Z 11008KT 31/18 A3007 RMK A01 T03120179  RH  048%=      5-min Rain = 0
KPMS 132235Z 13010KT 31/18 A3007 RMK A01 T03110182  RH  049%=      5-min Rain = 0
KPMS 132240Z 14010KT 31/18 A3007 RMK A01 T03110182  RH  049%=      5-min Rain = 0
KPMS 132245Z 12010G16KT 31/18 A3007 RMK A01 T03100180  RH  048%=      5-min Rain = 0
KPMS 132250Z 10010KT 31/18 A3007 RMK A01 T03090178  RH  048%=      5-min Rain = 0
KPMS 132255Z 11010G16KT 31/18 A3007 RMK A01 T03080180  RH  049%=      5-min Rain = 0
KPMS 132300Z 11012KT 31/18 A3007 RMK A01 T03100181  RH  049%=      5-min Rain = 0
KPMS 132305Z 12010KT 31/18 A3007 RMK A01 T03080180  RH  049%=      5-min Rain = 0
KPMS 132310Z 11010G15KT 31/18 A3007 RMK A01 T03090180  RH  049%=      5-min Rain = 0
KPMS 132315Z 11011KT 31/18 A3008 RMK A01 T03050179  RH  049%=      5-min Rain = 0
KPMS 132320Z 12010KT 31/18 A3008 RMK A01 T03070179  RH  049%=      5-min Rain = 0
KPMS 132325Z 13010KT 31/18 A3008 RMK A01 T03080180  RH  049%=      5-min Rain = 0
KPMS 132330Z 13009KT 31/18 A3008 RMK A01 T03070180  RH  049%=      5-min Rain = 0
KPMS 132335Z 14010KT 31/18 A3008 RMK A01 T03070179  RH  049%=      5-min Rain = 0
KPMS 132340Z 12009KT 31/18 A3008 RMK A01 T03050180  RH  050%=      5-min Rain = 0
KPMS 132345Z 12010KT 31/18 A3008 RMK A01 T03050181  RH  050%=      5-min Rain = 0
KPMS 132350Z 13010KT 30/18 A3008 RMK A01 T03030180  RH  050%=      5-min Rain = 0
KPMS 132355Z 13008KT 30/18 A3008 RMK A01 T03010179  RH  050%=      5-min Rain = 0
KPMS 140000Z 14008G13KT 30/18 A3008 RMK A01 T03020179  RH  050%=      5-min Rain = 0
KPMS 140005Z 12010KT 30/18 A3008 RMK A01 T03000178  RH  051%=      5-min Rain = 0
KPMS 140010Z 12009KT 30/18 A3008 RMK A01 T02980177  RH  051%=      5-min Rain = 0
KPMS 140015Z 12008KT 30/18 A3008 RMK A01 T02970176  RH  051%=      5-min Rain = 0
KPMS 140020Z 12008KT 30/18 A3008 RMK A01 T02960176  RH  051%=      5-min Rain = 0
KPMS 140025Z 12010KT 30/18 A3007 RMK A01 T02950177  RH  052%=      5-min Rain = 0
KPMS 140030Z 13009KT 29/18 A3007 RMK A01 T02940176  RH  052%=      5-min Rain = 0
KPMS 140035Z 12008KT 29/18 A3007 RMK A01 T02930177  RH  052%=      5-min Rain = 0
KPMS 140040Z 12008KT 29/18 A3008 RMK A01 T02920179  RH  053%=      5-min Rain = 0
KPMS 140045Z 12008KT 29/18 A3008 RMK A01 T02900179  RH  054%=      5-min Rain = 0
KPMS 140050Z 13008KT 29/18 A3008 RMK A01 T02870179  RH  055%=      5-min Rain = 0
KPMS 140055Z 13007KT 29/18 A3008 RMK A01 T02860179  RH  055%=      5-min Rain = 0
KPMS 140100Z 12005KT 28/18 A3008 RMK A01 T02840180  RH  056%=      5-min Rain = 0
KPMS 140105Z 12006KT 28/18 A3008 RMK A01 T02810181  RH  057%=      5-min Rain = 0
KPMS 140110Z 11005KT 28/18 A3009 RMK A01 T02780180  RH  058%=      5-min Rain = 0
KPMS 140115Z 11005KT 27/18 A3009 RMK A01 T02730182  RH  061%=      5-min Rain = 0
KPMS 140120Z 12005KT 27/18 A301 RMK A01 T02680183  RH  063%=      5-min Rain = 0
KPMS 140125Z 11004KT 26/18 A301 RMK A01 T02630184  RH  065%=      5-min Rain = 0
KPMS 140130Z 10004KT 26/19 A301 RMK A01 T02590187  RH  068%=      5-min Rain = 0
KPMS 140135Z 09005KT 26/19 A3011 RMK A01 T02550188  RH  070%=      5-min Rain = 0
KPMS 140140Z 10005KT 25/19 A3011 RMK A01 T02520190  RH  072%=      5-min Rain = 0
KPMS 140145Z 11006KT 25/19 A3011 RMK A01 T02480191  RH  075%=      5-min Rain = 0
KPMS 140150Z 11006KT 25/19 A3011 RMK A01 T02450192  RH  077%=      5-min Rain = 0
KPMS 140155Z 12006KT 25/19 A3011 RMK A01 T02450188  RH  075%=      5-min Rain = 0
KPMS 140200Z 12006KT 25/19 A3012 RMK A01 T02470188  RH  073%=      5-min Rain = 0
KPMS 140205Z 11006KT 25/19 A3012 RMK A01 T02480188  RH  073%=      5-min Rain = 0
KPMS 140210Z 11006KT 24/19 A3012 RMK A01 T02440188  RH  075%=      5-min Rain = 0
KPMS 140215Z 12006KT 24/19 A3012 RMK A01 T02400189  RH  077%=      5-min Rain = 0
KPMS 140220Z 12006KT 24/19 A3012 RMK A01 T02410189  RH  077%=      5-min Rain = 0
KPMS 140225Z 12007KT 24/19 A3012 RMK A01 T02430190  RH  076%=      5-min Rain = 0
KPMS 140230Z 12006KT 24/19 A3012 RMK A01 T02430190  RH  076%=      5-min Rain = 0
KPMS 140235Z 12006KT 24/19 A3012 RMK A01 T02440189  RH  076%=      5-min Rain = 0
KPMS 140240Z 12006KT 24/19 A3013 RMK A01 T02420189  RH  076%=      5-min Rain = 0
KPMS 140245Z 13005KT 24/19 A3013 RMK A01 T02400190  RH  078%=      5-min Rain = 0
KPMS 140250Z 13005KT 24/19 A3013 RMK A01 T02350191  RH  080%=      5-min Rain = 0
KPMS 140255Z 12004KT 23/19 A3014 RMK A01 T02320191  RH  082%=      5-min Rain = 0
KPMS 140300Z 12005KT 23/19 A3014 RMK A01 T02320191  RH  082%=      5-min Rain = 0
KPMS 140305Z 12005KT 23/19 A3014 RMK A01 T02300191  RH  083%=      5-min Rain = 0
KPMS 140310Z 12004KT 23/19 A3015 RMK A01 T02290191  RH  084%=      5-min Rain = 0
KPMS 140315Z 12005KT 23/19 A3015 RMK A01 T02280191  RH  084%=      5-min Rain = 0
KPMS 140320Z 12006KT 23/19 A3015 RMK A01 T02300189  RH  082%=      5-min Rain = 0
KPMS 140325Z 12006KT 23/19 A3015 RMK A01 T02320189  RH  081%=      5-min Rain = 0
KPMS 140330Z 12006KT 23/19 A3016 RMK A01 T02320189  RH  081%=      5-min Rain = 0
KPMS 140335Z 12007KT 23/19 A3016 RMK A01 T02310188  RH  081%=      5-min Rain = 0
KPMS 140340Z 12006KT 23/19 A3016 RMK A01 T02330187  RH  080%=      5-min Rain = 0
KPMS 140345Z 13005KT 23/19 A3017 RMK A01 T02340187  RH  079%=      5-min Rain = 0
KPMS 140350Z 14004KT 23/19 A3017 RMK A01 T02310189  RH  082%=      5-min Rain = 0
KPMS 140355Z 13004KT 23/19 A3017 RMK A01 T02280189  RH  083%=      5-min Rain = 0
KPMS 140400Z 12005KT 23/19 A3017 RMK A01 T02250190  RH  085%=      5-min Rain = 0
KPMS 140405Z 11006KT 23/19 A3017 RMK A01 T02250189  RH  085%=      5-min Rain = 0
KPMS 140410Z 10007KT 23/19 A3017 RMK A01 T02260187  RH  083%=      5-min Rain = 0
KPMS 140415Z 09007KT 23/19 A3017 RMK A01 T02270187  RH  082%=      5-min Rain = 0
KPMS 140420Z 08008KT 23/19 A3018 RMK A01 T02300186  RH  080%=      5-min Rain = 0
KPMS 140425Z 07008KT 23/19 A3019 RMK A01 T02340185  RH  078%=      5-min Rain = 0
KPMS 140430Z 08008KT 24/19 A3019 RMK A01 T02350185  RH  077%=      5-min Rain = 0
KPMS 140435Z 08008KT 24/18 A302 RMK A01 T02350184  RH  077%=      5-min Rain = 0
KPMS 140440Z 09008KT 23/19 A302 RMK A01 T02320185  RH  079%=      5-min Rain = 0
KPMS 140445Z 09007KT 23/19 A302 RMK A01 T02260185  RH  082%=      5-min Rain = 0
KPMS 140450Z 09007KT 22/19 A302 RMK A01 T02230185  RH  084%=      5-min Rain = 0
KPMS 140455Z 04014G30KT 22/18 A3022 RMK A01 T02230182  RH  081%=      5-min Rain = 0

Page generated in 0.0089 seconds.